Time;durP1;ratioP1;P1;durP2;ratioP2;P2;SDS_P1;SDS_P2;PMS_P1;PMS_P2;Temp;Humidity;BMP_temperature;BMP_pressure;BME280_temperature;BME280_humidity;BME280_pressure;Samples;Min_cycle;Max_cycle;Signal;HPM_P1;HPM_P2
2020/12/02 00:01:01;;;;;;;31.25;15.85;;;4.50;71.60;;;;;;5054828;28;20040;-69
2020/12/02 00:03:38;;;;;;;30.33;15.77;;;4.50;71.60;;;;;;5055950;28;20013;-69
2020/12/02 00:06:05;;;;;;;31.75;16.45;;;4.50;71.70;;;;;;5055987;28;20021;-69
2020/12/02 00:08:52;;;;;;;34.33;16.13;;;4.50;71.70;;;;;;5054536;28;20425;-69
2020/12/02 00:11:18;;;;;;;33.45;17.25;;;4.50;71.60;;;;;;5055843;28;20024;-69
2020/12/02 00:13:48;;;;;;;36.08;16.40;;;4.50;71.60;;;;;;5055359;28;20021;-69
2020/12/02 00:16:22;;;;;;;33.78;16.48;;;4.50;71.60;;;;;;5055876;28;20021;-69
2020/12/02 00:18:51;;;;;;;33.65;16.17;;;4.50;71.50;;;;;;5055911;28;20387;-69
2020/12/02 00:21:18;;;;;;;31.08;15.65;;;4.50;71.50;;;;;;5055442;28;20072;-69
2020/12/02 00:23:44;;;;;;;33.85;15.02;;;4.50;71.60;;;;;;5055514;28;20112;-70
2020/12/02 00:26:10;;;;;;;33.65;16.33;;;4.50;71.60;;;;;;5055831;28;20500;-71
2020/12/02 00:28:36;;;;;;;30.17;15.13;;;4.50;71.70;;;;;;5055576;28;20032;-70
2020/12/02 00:31:02;;;;;;;36.80;17.40;;;4.50;71.90;;;;;;5055639;28;20745;-69
2020/12/02 00:33:28;;;;;;;32.88;15.38;;;4.50;71.80;;;;;;5055365;28;20032;-71
2020/12/02 00:35:54;;;;;;;31.17;16.00;;;4.50;71.90;;;;;;5055548;28;20071;-71
2020/12/02 00:38:21;;;;;;;34.58;16.88;;;4.50;71.80;;;;;;5055419;28;20100;-70
2020/12/02 00:40:47;;;;;;;35.53;15.85;;;4.50;71.60;;;;;;5054863;28;20032;-69
2020/12/02 00:43:16;;;;;;;34.75;16.17;;;4.50;71.80;;;;;;5054281;28;20036;-71
2020/12/02 00:45:42;;;;;;;35.97;16.52;;;4.50;72.00;;;;;;5054967;28;20053;-70
2020/12/02 00:48:16;;;;;;;33.78;15.85;;;4.50;71.90;;;;;;5037308;28;20025;-70
2020/12/02 00:50:42;;;;;;;32.78;15.20;;;4.50;71.80;;;;;;5054940;28;20079;-70
2020/12/02 00:53:29;;;;;;;33.10;16.20;;;4.60;71.90;;;;;;5055198;28;20025;-69
2020/12/02 00:55:56;;;;;;;32.53;15.25;;;4.60;71.90;;;;;;5055241;28;20021;-69
2020/12/02 00:58:28;;;;;;;29.63;15.40;;;4.60;72.10;;;;;;5055005;28;20029;-69
2020/12/02 01:00:56;;;;;;;32.78;14.85;;;4.60;72.00;;;;;;5055009;28;20364;-69
2020/12/02 01:03:26;;;;;;;32.03;15.77;;;4.60;72.20;;;;;;5054737;28;20020;-70
2020/12/02 01:05:54;;;;;;;33.17;15.93;;;4.60;71.50;;;;;;5054577;28;20368;-70
2020/12/02 01:08:22;;;;;;;37.72;16.70;;;4.60;71.60;;;;;;5054892;28;20028;-70
2020/12/02 01:10:54;;;;;;;36.72;17.30;;;4.60;71.80;;;;;;5054696;28;20111;-70
2020/12/02 01:13:19;;;;;;;32.70;15.55;;;4.70;72.10;;;;;;5054720;28;20151;-69
2020/12/02 01:15:45;;;;;;;33.90;15.60;;;4.60;71.70;;;;;;5054599;28;20463;-70
2020/12/02 01:18:17;;;;;;;31.33;15.32;;;4.60;71.90;;;;;;5054723;28;20025;-69
2020/12/02 01:20:43;;;;;;;32.45;14.85;;;4.60;71.70;;;;;;5054430;28;20405;-70
2020/12/02 01:23:15;;;;;;;33.22;15.77;;;4.60;71.70;;;;;;5054575;28;20155;-69
2020/12/02 01:25:43;;;;;;;31.52;14.57;;;4.60;71.60;;;;;;5052402;28;20024;-70
2020/12/02 01:28:16;;;;;;;33.97;15.65;;;4.50;71.50;;;;;;5054458;28;20313;-70
2020/12/02 01:30:42;;;;;;;36.58;15.98;;;4.60;71.90;;;;;;5054654;28;20041;-69
2020/12/02 01:33:14;;;;;;;33.65;15.40;;;4.50;72.00;;;;;;5054371;28;20021;-70
2020/12/02 01:35:44;;;;;;;36.63;17.02;;;4.60;72.20;;;;;;5054390;28;20052;-70
2020/12/02 01:38:12;;;;;;;32.97;15.00;;;4.60;72.10;;;;;;5054527;28;20035;-69
2020/12/02 01:40:37;;;;;;;34.92;16.00;;;4.60;72.70;;;;;;5053889;28;20029;-69
2020/12/02 01:43:10;;;;;;;29.73;14.60;;;4.70;71.90;;;;;;5048903;28;20084;-69
2020/12/02 01:45:41;;;;;;;35.20;15.18;;;4.70;71.90;;;;;;5032866;28;20017;-70
2020/12/02 01:48:41;;;;;;;34.90;14.70;;;4.70;71.60;;;;;;5034191;28;20032;-70
2020/12/02 01:51:12;;;;;;;32.80;15.23;;;4.60;71.30;;;;;;5033977;28;20033;-70
2020/12/02 01:53:56;;;;;;;32.88;14.50;;;4.60;71.70;;;;;;5033947;28;20049;-71
2020/12/02 01:56:57;;;;;;;31.77;15.23;;;4.60;72.00;;;;;;5033811;28;20021;-69
2020/12/02 01:59:46;;;;;;;36.50;15.82;;;4.60;72.00;;;;;;5034346;28;20098;-69
2020/12/02 02:02:16;;;;;;;34.17;16.38;;;4.60;71.80;;;;;;5033958;28;20086;-70
2020/12/02 02:04:53;;;;;;;30.73;15.55;;;4.60;71.90;;;;;;5033817;28;20021;-70
2020/12/02 02:07:23;;;;;;;32.88;15.10;;;4.70;72.10;;;;;;5032545;28;20084;-70
2020/12/02 02:09:53;;;;;;;30.25;13.90;;;4.70;72.20;;;;;;5033910;28;20033;-70
2020/12/02 02:12:19;;;;;;;29.25;13.52;;;4.70;72.00;;;;;;5033495;28;20473;-70
2020/12/02 02:14:54;;;;;;;32.78;15.77;;;4.80;72.00;;;;;;5033973;28;20026;-70
2020/12/02 02:17:20;;;;;;;35.03;15.95;;;4.80;71.80;;;;;;5032841;28;20047;-70
2020/12/02 02:19:46;;;;;;;39.33;17.55;;;4.80;71.70;;;;;;5032389;28;20117;-69
2020/12/02 02:22:11;;;;;;;42.47;18.83;;;4.80;71.70;;;;;;5032604;28;20025;-70
2020/12/02 02:24:38;;;;;;;55.97;20.23;;;4.80;72.00;;;;;;5053415;28;20509;-69
2020/12/02 02:27:04;;;;;;;54.78;19.98;;;4.80;72.00;;;;;;5053599;28;20092;-69
2020/12/02 02:29:40;;;;;;;44.45;18.10;;;4.90;71.70;;;;;;5053724;28;20425;-70
2020/12/02 02:32:12;;;;;;;67.80;21.60;;;4.90;71.70;;;;;;5053641;28;20422;-68
2020/12/02 02:34:41;;;;;;;52.97;19.35;;;4.90;71.80;;;;;;5053366;28;20023;-69
2020/12/02 02:37:11;;;;;;;58.17;22.60;;;4.90;71.50;;;;;;5053728;28;20021;-70
2020/12/02 02:39:38;;;;;;;42.63;18.92;;;4.90;71.40;;;;;;5053635;28;20028;-69
2020/12/02 02:42:24;;;;;;;38.42;17.35;;;4.90;71.40;;;;;;5052993;28;20052;-69
2020/12/02 02:44:51;;;;;;;39.05;16.23;;;4.90;72.10;;;;;;5053419;28;20158;-69
2020/12/02 02:47:17;;;;;;;27.55;14.18;;;4.90;71.50;;;;;;5053608;28;20056;-69
2020/12/02 02:49:43;;;;;;;35.00;16.35;;;4.90;71.60;;;;;;5052635;28;20056;-69
2020/12/02 02:52:08;;;;;;;36.42;16.48;;;4.80;71.60;;;;;;5051874;28;20075;-70
2020/12/02 02:54:34;;;;;;;33.83;14.38;;;4.90;71.50;;;;;;5052851;28;20025;-69
2020/12/02 02:57:00;;;;;;;33.17;15.93;;;4.80;71.60;;;;;;5053042;28;20021;-69
2020/12/02 02:59:25;;;;;;;33.13;15.50;;;4.80;71.70;;;;;;5053240;28;20017;-68
2020/12/02 03:01:51;;;;;;;45.10;19.23;;;4.90;71.70;;;;;;5052707;28;20364;-69
2020/12/02 03:04:17;;;;;;;51.72;18.70;;;4.90;71.60;;;;;;5053086;28;20032;-70
2020/12/02 03:06:42;;;;;;;37.42;16.42;;;4.90;71.50;;;;;;5053004;28;20017;-68
2020/12/02 03:09:11;;;;;;;38.53;17.85;;;4.90;71.40;;;;;;5051854;28;20021;-70
2020/12/02 03:11:39;;;;;;;33.33;15.00;;;4.90;71.60;;;;;;5052849;28;20033;-71
2020/12/02 03:14:05;;;;;;;30.60;13.98;;;4.90;71.70;;;;;;5052970;28;20021;-70
2020/12/02 03:16:44;;;;;;;33.95;16.02;;;4.90;71.60;;;;;;5048327;28;20031;-70
2020/12/02 03:19:20;;;;;;;32.38;14.60;;;5.00;71.50;;;;;;5033109;28;20449;-69
2020/12/02 03:21:47;;;;;;;29.42;14.50;;;4.90;71.20;;;;;;5032571;28;20484;-69
2020/12/02 03:24:13;;;;;;;29.20;13.88;;;4.90;71.30;;;;;;5033274;28;20064;-69
2020/12/02 03:26:39;;;;;;;30.60;13.95;;;4.90;71.40;;;;;;5032950;28;20480;-69
2020/12/02 03:29:06;;;;;;;28.45;14.00;;;4.90;71.50;;;;;;5035779;28;20104;-69
2020/12/02 03:31:32;;;;;;;30.70;14.50;;;4.90;71.40;;;;;;5036740;28;20065;-70
2020/12/02 03:33:57;;;;;;;27.55;13.05;;;4.90;71.40;;;;;;5036549;28;20099;-70
2020/12/02 03:36:23;;;;;;;27.88;11.45;;;4.90;71.50;;;;;;5036607;28;20021;-70
2020/12/02 03:38:51;;;;;;;23.35;11.63;;;4.90;71.70;;;;;;5036214;28;20117;-69
2020/12/02 03:41:18;;;;;;;26.90;12.93;;;4.90;71.50;;;;;;5036509;28;20365;-69
2020/12/02 03:43:44;;;;;;;25.00;12.30;;;4.90;71.50;;;;;;5036139;28;20308;-69
2020/12/02 03:46:09;;;;;;;22.38;11.40;;;4.90;71.50;;;;;;5051871;28;20018;-69
2020/12/02 03:48:35;;;;;;;19.05;11.00;;;5.00;71.50;;;;;;5036402;28;20094;-69
2020/12/02 03:51:01;;;;;;;21.85;12.05;;;4.90;71.30;;;;;;5035866;28;20460;-69
2020/12/02 03:53:27;;;;;;;20.35;10.75;;;4.90;71.30;;;;;;5034770;28;20113;-70
2020/12/02 03:55:53;;;;;;;20.30;11.38;;;4.90;71.20;;;;;;5036094;28;20097;-70
2020/12/02 03:58:18;;;;;;;20.33;11.18;;;4.90;71.20;;;;;;5036576;28;20029;-70
2020/12/02 04:00:45;;;;;;;22.35;10.07;;;4.90;71.10;;;;;;5034791;28;20029;-69
2020/12/02 04:03:11;;;;;;;22.42;10.82;;;4.80;71.00;;;;;;5034633;28;20063;-71
2020/12/02 04:05:37;;;;;;;19.90;10.45;;;4.80;71.30;;;;;;5035903;28;20018;-71
2020/12/02 04:08:03;;;;;;;16.45;9.75;;;4.80;71.40;;;;;;5035650;28;20373;-70
2020/12/02 04:10:29;;;;;;;16.85;9.55;;;4.90;71.50;;;;;;5036061;28;20044;-69
2020/12/02 04:12:55;;;;;;;18.58;10.00;;;4.90;71.60;;;;;;5035644;28;20021;-69
2020/12/02 04:15:21;;;;;;;18.02;9.38;;;4.90;71.50;;;;;;5035783;28;20021;-70
2020/12/02 04:17:48;;;;;;;19.02;10.27;;;4.90;71.40;;;;;;5018276;28;20032;-69
2020/12/02 04:20:17;;;;;;;13.55;8.52;;;4.90;71.40;;;;;;5035992;28;20397;-70
2020/12/02 04:22:51;;;;;;;15.82;9.45;;;4.90;71.40;;;;;;5039423;28;20025;-70
2020/12/02 04:25:18;;;;;;;21.58;10.88;;;5.00;71.30;;;;;;5055710;28;20021;-69
2020/12/02 04:27:44;;;;;;;16.63;9.02;;;5.00;71.40;;;;;;5055301;28;20033;-71
2020/12/02 04:30:11;;;;;;;14.40;9.27;;;5.00;71.30;;;;;;5055205;28;20091;-69
2020/12/02 04:32:37;;;;;;;15.25;9.10;;;5.00;71.20;;;;;;5055782;28;20099;-70
2020/12/02 04:35:04;;;;;;;14.27;8.57;;;5.00;71.00;;;;;;5054038;28;20405;-70
2020/12/02 04:37:30;;;;;;;13.05;8.02;;;5.00;71.20;;;;;;5053961;28;20449;-69
2020/12/02 04:39:57;;;;;;;13.18;7.40;;;5.00;71.70;;;;;;5054420;28;20082;-69
2020/12/02 04:42:31;;;;;;;10.73;7.55;;;5.00;70.90;;;;;;5055162;28;20103;-69
2020/12/02 04:44:58;;;;;;;14.25;8.77;;;5.00;70.90;;;;;;5055618;28;20020;-69
2020/12/02 04:47:36;;;;;;;14.75;9.43;;;5.00;70.90;;;;;;5052517;28;20017;-69
2020/12/02 04:50:12;;;;;;;13.48;7.90;;;5.00;71.00;;;;;;5051812;28;20021;-69
2020/12/02 04:52:39;;;;;;;15.68;9.10;;;4.90;70.80;;;;;;5055068;28;20021;-69
2020/12/02 04:55:04;;;;;;;15.82;8.77;;;4.90;71.10;;;;;;5054768;28;20357;-70
2020/12/02 04:57:30;;;;;;;15.52;9.00;;;4.90;70.60;;;;;;5054810;28;20025;-70
2020/12/02 04:59:56;;;;;;;16.50;10.00;;;4.80;70.70;;;;;;5054642;28;20174;-69
2020/12/02 05:02:27;;;;;;;25.02;14.77;;;4.80;70.60;;;;;;5054741;28;20021;-69
2020/12/02 05:05:02;;;;;;;15.70;8.82;;;4.70;70.80;;;;;;5054823;28;20044;-69
2020/12/02 05:07:28;;;;;;;;;;;4.70;71.20;;;;;;5055365;28;20364;-70
2020/12/02 05:10:14;;;;;;;20.23;8.80;;;4.60;71.00;;;;;;5053064;28;19901;-70
2020/12/02 05:12:45;;;;;;;14.93;8.18;;;4.70;71.50;;;;;;5055083;28;20048;-69
2020/12/02 05:15:27;;;;;;;15.50;8.50;;;4.70;71.80;;;;;;5054666;28;20013;-69
2020/12/02 05:18:04;;;;;;;12.60;7.82;;;4.80;71.50;;;;;;5054553;28;20096;-69
2020/12/02 05:20:30;;;;;;;14.10;8.38;;;4.80;71.20;;;;;;5054831;28;20349;-70
2020/12/02 05:22:56;;;;;;;15.88;8.05;;;4.70;70.90;;;;;;5036215;28;20021;-70
2020/12/02 05:25:24;;;;;;;15.05;8.18;;;4.70;71.00;;;;;;5054630;28;20028;-69
2020/12/02 05:27:59;;;;;;;15.48;7.63;;;4.70;70.90;;;;;;5054483;28;20463;-69
2020/12/02 05:30:32;;;;;;;17.23;8.43;;;4.60;71.20;;;;;;5054492;28;20049;-70
2020/12/02 05:33:11;;;;;;;14.68;8.45;;;4.70;71.80;;;;;;5038952;28;20029;-70
2020/12/02 05:35:42;;;;;;;13.63;8.15;;;4.70;71.80;;;;;;5034119;28;20021;-69
2020/12/02 05:38:10;;;;;;;17.08;9.85;;;4.80;71.90;;;;;;5034165;28;20040;-69
2020/12/02 05:40:38;;;;;;;18.17;10.55;;;4.80;71.50;;;;;;5034471;28;20029;-70
2020/12/02 05:43:30;;;;;;;20.20;12.30;;;4.80;71.40;;;;;;5034250;28;20025;-70
2020/12/02 05:45:57;;;;;;;17.92;11.15;;;4.90;71.50;;;;;;5015698;28;20368;-69
2020/12/02 05:48:34;;;;;;;19.75;11.60;;;4.90;71.60;;;;;;5034200;28;20021;-69
2020/12/02 05:51:01;;;;;;;27.70;12.35;;;4.90;71.20;;;;;;5033439;28;20113;-70
2020/12/02 05:53:33;;;;;;;24.58;13.23;;;4.90;71.10;;;;;;5033971;28;20030;-70
2020/12/02 05:56:01;;;;;;;24.40;13.07;;;4.90;70.90;;;;;;5034263;28;20056;-70
2020/12/02 05:58:33;;;;;;;22.02;12.15;;;4.90;70.50;;;;;;5049235;28;20033;-69
2020/12/02 06:01:00;;;;;;;25.90;13.18;;;4.80;70.70;;;;;;5053632;28;20020;-71
2020/12/02 06:03:32;;;;;;;22.55;12.00;;;4.80;70.80;;;;;;5053725;28;20399;-70
2020/12/02 06:06:01;;;;;;;29.45;14.13;;;4.70;70.60;;;;;;5053721;28;20020;-69
2020/12/02 06:08:47;;;;;;;23.88;12.60;;;4.60;70.30;;;;;;5053490;28;20032;-70
2020/12/02 06:11:15;;;;;;;23.83;11.90;;;4.60;70.90;;;;;;5052180;28;20082;-70
2020/12/02 06:13:42;;;;;;;25.33;13.07;;;4.60;71.00;;;;;;5053447;28;20083;-71
2020/12/02 06:16:15;;;;;;;24.15;11.93;;;4.60;71.20;;;;;;5053350;28;20029;-71
2020/12/02 06:18:41;;;;;;;25.10;14.43;;;4.60;71.50;;;;;;5053842;28;20032;-70
2020/12/02 06:21:18;;;;;;;25.80;14.10;;;4.70;71.70;;;;;;5053206;28;20407;-70
2020/12/02 06:23:55;;;;;;;27.08;14.93;;;4.80;71.70;;;;;;5053845;28;20047;-70
2020/12/02 06:26:38;;;;;;;32.83;16.40;;;4.90;71.50;;;;;;5053110;28;20025;-71
2020/12/02 06:29:06;;;;;;;33.05;16.20;;;5.00;71.40;;;;;;5052713;28;20028;-70
2020/12/02 06:31:32;;;;;;;27.77;15.65;;;5.10;71.40;;;;;;5053242;28;20025;-70
2020/12/02 06:34:06;;;;;;;29.77;15.63;;;5.20;71.40;;;;;;5051653;28;20024;-69
2020/12/02 06:36:35;;;;;;;27.55;15.50;;;5.20;70.70;;;;;;5053383;28;20028;-70
2020/12/02 06:39:24;;;;;;;27.52;15.00;;;5.20;70.20;;;;;;5053354;28;20013;-70
2020/12/02 06:41:50;;;;;;;29.17;15.45;;;5.10;69.80;;;;;;5045323;28;20096;-70
2020/12/02 06:44:16;;;;;;;28.10;15.13;;;5.10;70.20;;;;;;5042819;28;20013;-70
2020/12/02 06:47:03;;;;;;;27.65;14.63;;;5.10;70.40;;;;;;5040689;28;20147;-70
2020/12/02 06:49:32;;;;;;;25.27;15.35;;;5.10;70.90;;;;;;5040095;28;20120;-70
2020/12/02 06:52:00;;;;;;;24.52;13.68;;;5.10;70.30;;;;;;5037146;28;20033;-70
2020/12/02 06:54:29;;;;;;;27.02;13.80;;;5.20;70.50;;;;;;5041214;28;20044;-70
2020/12/02 06:57:18;;;;;;;31.70;16.67;;;5.20;70.40;;;;;;5040791;28;20021;-71
2020/12/02 06:59:54;;;;;;;33.80;16.50;;;5.30;70.50;;;;;;5034181;28;20033;-72
2020/12/02 07:02:34;;;;;;;27.45;14.27;;;5.40;70.70;;;;;;5042875;28;20024;-70
2020/12/02 07:05:04;;;;;;;27.17;14.73;;;5.50;70.30;;;;;;5056231;28;20028;-70
2020/12/02 07:07:30;;;;;;;30.27;15.15;;;5.60;70.10;;;;;;5057144;28;20021;-71
2020/12/02 07:09:55;;;;;;;36.13;17.17;;;5.60;69.90;;;;;;5056660;28;20068;-72
2020/12/02 07:12:23;;;;;;;51.80;26.15;;;5.60;69.30;;;;;;5055950;28;20111;-72
2020/12/02 07:14:50;;;;;;;24.77;14.45;;;5.50;69.40;;;;;;5056918;28;20029;-72
2020/12/02 07:17:20;;;;;;;34.85;16.35;;;5.50;69.10;;;;;;5057308;28;20330;-71
2020/12/02 07:19:48;;;;;;;33.72;17.20;;;5.40;68.70;;;;;;5056972;28;20124;-72
2020/12/02 07:22:22;;;;;;;32.33;17.55;;;5.40;68.80;;;;;;5056991;28;20021;-72
2020/12/02 07:24:50;;;;;;;26.80;14.93;;;5.30;69.00;;;;;;5056795;28;20078;-72
2020/12/02 07:27:19;;;;;;;35.72;18.38;;;5.30;68.90;;;;;;5055793;28;20067;-72
2020/12/02 07:29:44;;;;;;;36.15;17.65;;;5.20;69.10;;;;;;5056497;28;20053;-71
2020/12/02 07:32:18;;;;;;;29.45;16.30;;;5.30;70.10;;;;;;5056339;28;20098;-72
2020/12/02 07:34:45;;;;;;;27.90;14.05;;;5.30;69.70;;;;;;5056607;28;20082;-72
2020/12/02 07:37:16;;;;;;;33.60;17.55;;;5.40;69.50;;;;;;5056366;28;20510;-71
2020/12/02 07:39:47;;;;;;;31.08;16.88;;;5.40;69.30;;;;;;5056578;28;20021;-72
2020/12/02 07:42:22;;;;;;;30.98;16.25;;;5.40;69.10;;;;;;5055606;28;20021;-72
2020/12/02 07:45:03;;;;;;;;;;;5.40;69.10;;;;;;5056736;28;20040;-70
2020/12/02 07:47:30;;;;;;;29.83;14.15;;;5.50;69.20;;;;;;5056352;28;19930;-71
2020/12/02 07:50:19;;;;;;;25.52;13.88;;;5.50;68.90;;;;;;5055739;28;20032;-70
2020/12/02 07:52:54;;;;;;;30.00;14.68;;;5.50;68.50;;;;;;5054741;28;20100;-74
2020/12/02 07:55:52;;;;;;;26.13;14.70;;;5.40;68.10;;;;;;5056222;28;20349;-71
2020/12/02 07:58:40;;;;;;;29.98;15.20;;;5.30;68.60;;;;;;5056583;28;20016;-71
2020/12/02 08:01:31;;;;;;;41.05;18.85;;;5.30;68.50;;;;;;5056140;28;20403;-71
2020/12/02 08:04:20;;;;;;;38.60;18.77;;;5.20;68.70;;;;;;5056143;28;20049;-71
2020/12/02 08:07:06;;;;;;;41.35;19.85;;;5.20;68.70;;;;;;5054782;28;20464;-72
2020/12/02 08:09:47;;;;;;;41.47;19.33;;;5.10;68.90;;;;;;5056151;28;20021;-72
2020/12/02 08:12:17;;;;;;;34.95;17.08;;;5.00;68.80;;;;;;5055795;28;20033;-71
2020/12/02 08:15:06;;;;;;;40.42;19.13;;;5.00;69.00;;;;;;5053345;28;20511;-72
2020/12/02 08:17:33;;;;;;;39.67;18.75;;;5.00;69.20;;;;;;5055671;28;20075;-71
2020/12/02 08:20:19;;;;;;;35.50;18.38;;;4.90;69.00;;;;;;5048656;28;20028;-72
2020/12/02 08:22:54;;;;;;;42.53;19.40;;;4.90;69.10;;;;;;5044715;28;20076;-71
2020/12/02 08:25:59;;;;;;;45.28;20.90;;;4.80;69.10;;;;;;5044179;28;20025;-72
2020/12/02 08:28:32;;;;;;;43.17;20.63;;;4.70;69.60;;;;;;5044664;28;20010;-72
2020/12/02 08:31:05;;;;;;;44.95;23.17;;;4.80;69.90;;;;;;5043066;28;20141;-72
2020/12/02 08:33:31;;;;;;;48.10;23.30;;;4.80;70.00;;;;;;5043291;28;20025;-72
2020/12/02 08:36:08;;;;;;;44.10;21.70;;;4.80;70.10;;;;;;5044834;28;20020;-72
2020/12/02 08:38:38;;;;;;;52.47;25.10;;;4.90;70.30;;;;;;5043997;28;20083;-70
2020/12/02 08:41:13;;;;;;;52.10;25.00;;;4.90;70.20;;;;;;5038405;28;20515;-71
2020/12/02 08:43:46;;;;;;;48.45;24.27;;;4.90;70.00;;;;;;5043634;28;20036;-72
2020/12/02 08:46:25;;;;;;;39.33;21.45;;;5.00;70.70;;;;;;5043007;28;20025;-72
2020/12/02 08:49:02;;;;;;;41.67;22.88;;;5.00;70.00;;;;;;5044645;28;20105;-72
2020/12/02 08:51:28;;;;;;;39.25;20.73;;;5.00;69.80;;;;;;5044011;28;20101;-73
2020/12/02 08:53:55;;;;;;;40.80;21.55;;;5.10;69.70;;;;;;5042655;28;20022;-72
2020/12/02 08:56:25;;;;;;;40.35;21.17;;;5.10;69.90;;;;;;5041980;28;20013;-73
2020/12/02 08:58:51;;;;;;;31.33;18.20;;;5.20;69.90;;;;;;5043594;28;20014;-72
2020/12/02 09:01:17;;;;;;;32.75;17.83;;;5.20;69.80;;;;;;5043300;28;20017;-71
2020/12/02 09:03:43;;;;;;;32.80;16.75;;;5.30;69.90;;;;;;5044967;28;20029;-72
2020/12/02 09:06:14;;;;;;;17.05;10.05;;;5.40;70.00;;;;;;5042525;28;20532;-71
2020/12/02 09:08:40;;;;;;;23.65;13.15;;;5.50;69.60;;;;;;5042725;28;20028;-73
2020/12/02 09:11:06;;;;;;;25.52;11.63;;;5.50;69.50;;;;;;5044312;28;20465;-72
2020/12/02 09:13:32;;;;;;;20.45;11.50;;;5.60;69.40;;;;;;5043110;28;20516;-73
2020/12/02 09:15:57;;;;;;;18.23;10.48;;;5.60;69.20;;;;;;5041890;28;20017;-73
2020/12/02 09:18:23;;;;;;;19.63;10.98;;;5.60;68.80;;;;;;5038931;28;20047;-73
2020/12/02 09:20:49;;;;;;;26.75;12.70;;;5.60;68.70;;;;;;5042672;28;20456;-71
2020/12/02 09:23:14;;;;;;;23.02;12.13;;;5.60;68.80;;;;;;5043061;28;20024;-71
2020/12/02 09:25:40;;;;;;;21.13;11.55;;;5.60;68.90;;;;;;5043892;28;20129;-72
2020/12/02 09:28:06;;;;;;;18.45;10.80;;;5.70;68.60;;;;;;5041985;28;20025;-70
2020/12/02 09:30:32;;;;;;;21.08;11.55;;;5.70;68.50;;;;;;5043294;28;20040;-72
2020/12/02 09:32:58;;;;;;;18.88;11.23;;;5.70;68.50;;;;;;5043203;28;20020;-72
2020/12/02 09:35:24;;;;;;;17.95;9.13;;;5.70;68.50;;;;;;5042359;28;20025;-72
2020/12/02 09:37:50;;;;;;;17.27;9.70;;;5.70;68.10;;;;;;5044368;28;20024;-72
2020/12/02 09:40:16;;;;;;;15.52;8.95;;;5.70;67.70;;;;;;5053157;28;20059;-70
2020/12/02 09:43:09;;;;;;;20.88;10.02;;;5.70;67.60;;;;;;5054204;28;20380;-71
2020/12/02 09:46:12;;;;;;;16.83;9.65;;;5.70;67.30;;;;;;5052392;28;20086;-70
2020/12/02 09:48:38;;;;;;;18.63;10.50;;;5.70;67.30;;;;;;5045061;28;20104;-72
2020/12/02 09:51:20;;;;;;;15.38;9.20;;;5.70;67.50;;;;;;5033646;28;20045;-71
2020/12/02 09:53:48;;;;;;;17.42;10.13;;;5.70;67.40;;;;;;5034490;28;20027;-72
2020/12/02 09:56:15;;;;;;;20.48;11.10;;;5.80;67.70;;;;;;5033995;28;20025;-69
2020/12/02 09:58:41;;;;;;;20.33;11.15;;;5.80;67.40;;;;;;5034144;28;20072;-70
2020/12/02 10:01:17;;;;;;;25.90;12.55;;;5.90;67.30;;;;;;5033852;28;20365;-71
2020/12/02 10:04:24;;;;;;;19.92;10.40;;;6.00;67.20;;;;;;5033801;28;20021;-71
2020/12/02 10:07:02;;;;;;;26.02;13.38;;;6.00;66.80;;;;;;5033732;28;20045;-72
2020/12/02 10:09:56;;;;;;;26.85;14.43;;;6.00;66.30;;;;;;5032866;28;20373;-71
2020/12/02 10:12:43;;;;;;;29.63;16.42;;;6.00;66.20;;;;;;5033828;28;20067;-72
2020/12/02 10:15:18;;;;;;;29.75;14.98;;;6.00;66.20;;;;;;5033409;28;20053;-71
2020/12/02 10:18:15;;;;;;;25.20;14.50;;;6.00;66.20;;;;;;5032320;28;20117;-73
2020/12/02 10:20:49;;;;;;;33.53;15.50;;;6.00;66.10;;;;;;5033500;28;20025;-72
2020/12/02 10:24:02;;;;;;;32.05;16.23;;;6.00;65.90;;;;;;5030800;28;20044;-72
2020/12/02 10:26:40;;;;;;;28.38;15.57;;;5.90;65.30;;;;;;5051826;28;20366;-72
2020/12/02 10:29:32;;;;;;;37.40;17.08;;;5.80;65.40;;;;;;5052965;28;20086;-70
2020/12/02 10:32:00;;;;;;;32.75;16.35;;;5.60;65.10;;;;;;5052597;28;20045;-73
2020/12/02 10:34:37;;;;;;;30.33;15.35;;;5.60;65.80;;;;;;5052904;28;20048;-72
2020/12/02 10:37:11;;;;;;;28.98;15.05;;;5.60;65.90;;;;;;5051788;28;20109;-71
2020/12/02 10:39:37;;;;;;;29.88;15.27;;;5.50;65.60;;;;;;5052976;28;20025;-73
2020/12/02 10:42:29;;;;;;;36.60;16.75;;;5.50;66.00;;;;;;5052655;28;20036;-72
2020/12/02 10:45:17;;;;;;;30.13;16.40;;;5.60;66.20;;;;;;5053385;28;20021;-72
2020/12/02 10:48:12;;;;;;;33.50;16.50;;;5.60;66.20;;;;;;5053368;28;20071;-72
2020/12/02 10:50:39;;;;;;;32.47;16.02;;;5.70;66.00;;;;;;5050557;28;20045;-72
2020/12/02 10:53:20;;;;;;;39.97;15.48;;;5.70;65.90;;;;;;5052582;28;20036;-72
2020/12/02 10:55:46;;;;;;;29.65;14.55;;;5.70;65.70;;;;;;5053041;28;20108;-72
2020/12/02 10:58:18;;;;;;;33.72;15.82;;;5.80;65.70;;;;;;5052944;28;20108;-73
2020/12/02 11:00:48;;;;;;;27.73;14.60;;;5.80;65.60;;;;;;5053092;28;20035;-71
2020/12/02 11:03:34;;;;;;;29.75;14.60;;;5.80;65.70;;;;;;5053129;28;20326;-72
2020/12/02 11:06:10;;;;;;;31.13;14.77;;;5.90;65.40;;;;;;5053135;28;20025;-72
2020/12/02 11:08:42;;;;;;;32.10;14.32;;;5.90;65.20;;;;;;5053039;28;20017;-71
2020/12/02 11:11:54;;;;;;;29.65;15.23;;;6.00;65.20;;;;;;5051992;28;20375;-72
2020/12/02 11:14:54;;;;;;;30.05;14.00;;;5.90;64.80;;;;;;5053081;28;20021;-72
2020/12/02 11:17:29;;;;;;;24.23;12.93;;;5.90;64.80;;;;;;5053536;28;20051;-71
2020/12/02 11:20:09;;;;;;;23.63;12.95;;;6.00;64.80;;;;;;5052849;28;20021;-73
2020/12/02 11:22:49;;;;;;;24.30;13.15;;;6.00;64.60;;;;;;5052991;28;20028;-73
2020/12/02 11:25:21;;;;;;;23.23;12.30;;;5.90;64.30;;;;;;5052913;28;20052;-72
2020/12/02 11:27:48;;;;;;;22.75;12.80;;;5.90;64.30;;;;;;5053300;28;20021;-71
2020/12/02 11:30:31;;;;;;;22.02;12.57;;;5.90;64.50;;;;;;5052990;28;20114;-72
2020/12/02 11:33:08;;;;;;;24.15;13.88;;;5.80;64.60;;;;;;5052749;28;20021;-71
2020/12/02 11:36:02;;;;;;;24.10;13.82;;;5.90;64.50;;;;;;5053226;28;20424;-73
2020/12/02 11:38:42;;;;;;;26.75;13.40;;;5.90;64.40;;;;;;5052853;28;20017;-72
2020/12/02 11:41:23;;;;;;;26.33;13.35;;;6.00;64.40;;;;;;5052668;28;20460;-72
2020/12/02 11:43:55;;;;;;;29.33;13.88;;;6.00;64.20;;;;;;5053070;28;20021;-72
2020/12/02 11:46:23;;;;;;;32.95;15.65;;;6.10;64.20;;;;;;5052518;28;20337;-72
2020/12/02 11:49:16;;;;;;;29.25;15.88;;;6.10;64.20;;;;;;5052743;28;20112;-72
2020/12/02 11:52:04;;;;;;;32.38;16.98;;;6.20;64.10;;;;;;5052907;28;20029;-72
2020/12/02 11:54:29;;;;;;;42.55;22.27;;;6.20;64.10;;;;;;5036590;28;20030;-72
2020/12/02 12:00:20;;;;;;;36.95;19.05;;;6.30;63.90;;;;;;5045716;28;20104;-73
2020/12/02 12:03:03;;;;;;;34.17;19.60;;;6.40;63.90;;;;;;5052446;28;20029;-71
2020/12/02 12:05:37;;;;;;;34.45;21.30;;;6.40;63.80;;;;;;5035021;28;20377;-71
2020/12/02 12:08:17;;;;;;;31.30;18.53;;;6.50;63.60;;;;;;5036140;28;20076;-72
2020/12/02 12:11:15;;;;;;;20.42;12.23;;;6.50;63.40;;;;;;5035734;28;20057;-72
2020/12/02 12:13:55;;;;;;;20.67;11.73;;;6.40;62.80;;;;;;5035386;28;20041;-71
2020/12/02 12:16:31;;;;;;;23.30;14.05;;;6.40;63.00;;;;;;5050482;28;20220;-72
2020/12/02 12:19:15;;;;;;;23.30;13.98;;;6.40;63.20;;;;;;5038076;28;20031;-72
2020/12/02 12:21:54;;;;;;;33.17;18.35;;;6.40;63.20;;;;;;5055945;28;20025;-72
2020/12/02 12:24:21;;;;;;;28.13;16.00;;;6.40;63.20;;;;;;5054392;28;20036;-72
2020/12/02 12:26:52;;;;;;;27.10;14.65;;;6.40;63.50;;;;;;5055734;28;20017;-72
2020/12/02 12:29:17;;;;;;;30.05;17.33;;;6.40;63.30;;;;;;5052919;28;20533;-73
2020/12/02 12:31:48;;;;;;;22.90;12.93;;;6.40;63.40;;;;;;5035349;28;20028;-74
2020/12/02 12:34:46;;;;;;;19.95;11.18;;;6.40;63.30;;;;;;5035308;28;20088;-74
2020/12/02 12:37:27;;;;;;;19.02;10.95;;;6.30;63.00;;;;;;5035293;28;20053;-73
2020/12/02 12:40:00;;;;;;;19.90;11.23;;;6.30;63.00;;;;;;5050933;28;20048;-72
2020/12/02 12:42:29;;;;;;;27.23;12.63;;;6.30;63.00;;;;;;5035650;28;20025;-74
2020/12/02 12:45:00;;;;;;;24.58;13.00;;;6.30;63.20;;;;;;5035252;28;20449;-72
2020/12/02 12:47:33;;;;;;;26.27;13.70;;;6.30;63.10;;;;;;5035102;28;20021;-73
2020/12/02 12:50:00;;;;;;;26.60;14.95;;;6.30;63.20;;;;;;5034950;28;20114;-73
2020/12/02 12:52:30;;;;;;;26.58;15.73;;;6.30;63.20;;;;;;5034473;28;20037;-72
2020/12/02 12:54:57;;;;;;;24.58;14.23;;;6.30;63.10;;;;;;5033862;28;20022;-70
2020/12/02 12:57:28;;;;;;;20.65;12.68;;;6.30;63.10;;;;;;5035317;28;20017;-71
2020/12/02 12:59:59;;;;;;;20.05;11.90;;;6.30;63.00;;;;;;5034646;28;20020;-72
2020/12/02 13:02:37;;;;;;;20.42;12.25;;;6.20;63.00;;;;;;5033470;28;20485;-71
2020/12/02 13:05:14;;;;;;;19.67;11.83;;;6.20;63.20;;;;;;5034379;28;20029;-73
2020/12/02 13:07:44;;;;;;;20.50;11.32;;;6.20;64.10;;;;;;5034981;28;20465;-72
2020/12/02 13:10:25;;;;;;;19.65;12.07;;;6.10;63.70;;;;;;5032548;28;20044;-72